createdAt,value
2018-06-08T00:00:34.162Z,48.45
2018-06-08T00:03:02.209Z,48.56
2018-06-08T00:05:30.290Z,49.10
2018-06-08T00:07:58.347Z,49.93
2018-06-08T00:10:26.409Z,49.45
2018-06-08T00:12:54.648Z,49.72
2018-06-08T00:15:22.719Z,49.26
2018-06-08T00:17:50.777Z,50.12
2018-06-08T00:20:18.816Z,50.58
2018-06-08T00:22:46.892Z,50.36
2018-06-08T00:25:14.929Z,50.37
2018-06-08T00:27:43.008Z,50.62
2018-06-08T00:30:11.063Z,50.25
2018-06-08T00:32:39.105Z,50.62
2018-06-08T00:35:07.147Z,50.50
2018-06-08T00:37:35.184Z,50.79
2018-06-08T00:40:03.274Z,51.22
2018-06-08T00:42:31.317Z,51.12
2018-06-08T00:44:59.367Z,50.98
2018-06-08T00:47:27.436Z,51.11
2018-06-08T00:49:55.478Z,51.16
2018-06-08T00:52:23.512Z,51.53
2018-06-08T00:54:51.575Z,52.01
2018-06-08T00:57:19.652Z,52.25
2018-06-08T00:59:47.704Z,52.23
2018-06-08T01:02:15.735Z,52.32
2018-06-08T01:04:43.784Z,52.39
2018-06-08T01:07:11.841Z,53.00
2018-06-08T01:09:39.909Z,52.48
2018-06-08T01:12:07.995Z,52.47
2018-06-08T01:17:03.316Z,52.79
2018-06-08T01:19:32.704Z,52.93
2018-06-08T01:22:00.980Z,53.50
2018-06-08T01:24:29.019Z,53.91
2018-06-08T01:26:57.096Z,53.75
2018-06-08T01:29:25.135Z,53.40
2018-06-08T01:31:53.179Z,54.01
2018-06-08T01:34:21.229Z,53.76
2018-06-08T01:36:49.275Z,54.13
2018-06-08T01:39:17.316Z,54.23
2018-06-08T01:41:45.380Z,54.14
2018-06-08T01:44:13.415Z,54.73
2018-06-08T01:46:41.460Z,54.23
2018-06-08T01:49:09.492Z,54.58
2018-06-08T01:51:37.538Z,54.85
2018-06-08T01:54:05.652Z,55.08
2018-06-08T01:56:33.692Z,54.87
2018-06-08T01:59:01.724Z,54.80
2018-06-08T02:01:29.779Z,54.90
2018-06-08T02:03:57.821Z,55.00
2018-06-08T02:06:25.882Z,55.32
2018-06-08T02:08:53.924Z,55.62
2018-06-08T02:11:21.972Z,55.69
2018-06-08T02:13:50.009Z,55.84
2018-06-08T02:16:18.052Z,55.44
2018-06-08T02:18:46.132Z,55.45
2018-06-08T02:21:14.212Z,55.79
2018-06-08T02:23:42.287Z,56.17
2018-06-08T02:26:10.339Z,56.16
2018-06-08T02:28:38.395Z,56.02
2018-06-08T02:31:06.440Z,56.19
2018-06-08T02:33:34.489Z,56.56
2018-06-08T02:36:02.524Z,56.19
2018-06-08T02:38:30.559Z,56.92
2018-06-08T02:40:58.608Z,56.65
2018-06-08T02:43:26.655Z,56.78
2018-06-08T02:45:54.705Z,57.14
2018-06-08T02:48:22.734Z,57.35
2018-06-08T02:50:50.779Z,57.79
2018-06-08T02:53:18.868Z,57.41
2018-06-08T02:55:46.922Z,57.59
2018-06-08T02:58:14.956Z,57.53
2018-06-08T03:00:42.992Z,57.77
2018-06-08T03:03:11.039Z,57.88
2018-06-08T03:05:39.077Z,58.19
2018-06-08T03:08:07.133Z,58.29
2018-06-08T03:10:35.196Z,58.29
2018-06-08T03:13:03.244Z,58.37
2018-06-08T03:15:31.273Z,58.31
2018-06-08T03:17:59.325Z,58.32
2018-06-08T03:20:27.768Z,58.46
2018-06-08T03:22:55.821Z,58.88
2018-06-08T03:25:23.848Z,59.19
2018-06-08T03:27:51.913Z,58.76
2018-06-08T03:30:20.009Z,58.78
2018-06-08T03:32:48.084Z,59.42
2018-06-08T03:35:16.298Z,59.07
2018-06-08T03:37:44.329Z,59.08
2018-06-08T03:40:12.376Z,59.08
2018-06-08T03:42:40.416Z,59.32
2018-06-08T03:45:08.457Z,59.56
2018-06-08T03:47:36.492Z,59.43
2018-06-08T03:50:04.528Z,59.26
2018-06-08T03:52:32.584Z,59.40
2018-06-08T03:55:00.627Z,59.57
2018-06-08T03:57:28.673Z,59.15
2018-06-08T03:59:56.720Z,59.58
2018-06-08T04:02:24.787Z,59.54
2018-06-08T04:04:52.791Z,59.82
2018-06-08T04:07:20.869Z,59.89
2018-06-08T04:09:48.921Z,59.98
2018-06-08T04:12:16.952Z,60.18
2018-06-08T04:14:45.007Z,59.89
2018-06-08T04:17:13.089Z,60.17
2018-06-08T04:19:41.132Z,60.14
2018-06-08T04:22:09.186Z,60.48
2018-06-08T04:24:37.248Z,60.47
2018-06-08T04:27:05.304Z,60.72
2018-06-08T04:29:33.334Z,60.17
2018-06-08T04:32:01.377Z,60.55
2018-06-08T04:34:29.412Z,60.63
2018-06-08T04:36:57.505Z,60.66
2018-06-08T04:39:25.553Z,60.27
2018-06-08T04:41:53.589Z,60.63
2018-06-08T04:44:21.628Z,60.40
2018-06-08T04:46:49.682Z,60.16
2018-06-08T04:49:17.728Z,60.35
2018-06-08T04:51:45.826Z,59.89
2018-06-08T04:54:13.829Z,59.88
2018-06-08T04:56:41.886Z,59.97
2018-06-08T04:59:09.941Z,60.14
2018-06-08T05:01:37.980Z,60.10
2018-06-08T05:04:06.038Z,60.25
2018-06-08T05:06:34.085Z,60.22
2018-06-08T05:09:02.149Z,59.96
2018-06-08T05:11:30.220Z,59.41
2018-06-08T05:13:58.259Z,59.73
2018-06-08T05:16:26.316Z,59.57
2018-06-08T05:18:54.365Z,59.39
2018-06-08T05:21:22.423Z,59.11
2018-06-08T05:23:50.468Z,58.17
2018-06-08T05:26:18.530Z,58.10
2018-06-08T05:28:46.557Z,58.04
2018-06-08T05:31:14.621Z,56.31
2018-06-08T05:33:42.688Z,56.48
2018-06-08T05:36:10.780Z,56.58
2018-06-08T05:38:38.783Z,56.33
2018-06-08T05:41:06.836Z,55.90
2018-06-08T05:43:34.900Z,57.04
2018-06-08T05:46:02.969Z,55.27
2018-06-08T05:48:31.035Z,55.14
2018-06-08T05:50:59.071Z,55.30
2018-06-08T05:53:27.138Z,55.13
2018-06-08T05:55:55.205Z,54.78
2018-06-08T05:58:23.246Z,54.44
2018-06-08T06:00:51.296Z,53.77
2018-06-08T06:03:19.364Z,53.15
2018-06-08T06:05:47.450Z,52.98
2018-06-08T06:08:15.511Z,53.21
2018-06-08T06:10:43.564Z,53.28
2018-06-08T06:13:11.621Z,52.29
2018-06-08T06:15:39.669Z,51.81
2018-06-08T06:18:07.732Z,50.13
2018-06-08T06:20:35.780Z,50.83
2018-06-08T06:23:03.852Z,50.09
2018-06-08T06:25:31.889Z,49.72
2018-06-08T06:27:59.943Z,49.39
2018-06-08T06:30:28.036Z,49.11
2018-06-08T06:32:56.080Z,48.67
2018-06-08T06:35:24.183Z,48.48
2018-06-08T06:37:52.225Z,48.50
2018-06-08T06:40:20.291Z,48.68
2018-06-08T06:42:48.340Z,48.54
2018-06-08T06:45:16.409Z,48.10
2018-06-08T06:47:44.474Z,47.57
2018-06-08T06:50:12.548Z,47.94
2018-06-08T06:52:40.612Z,46.88
2018-06-08T06:55:08.698Z,47.73
2018-06-08T06:57:36.761Z,46.49
2018-06-08T07:00:04.833Z,46.54
2018-06-08T07:02:32.880Z,46.48
2018-06-08T07:05:00.952Z,46.69
2018-06-08T07:07:29.048Z,45.89
2018-06-08T07:09:57.121Z,45.61
2018-06-08T07:12:25.176Z,44.47
2018-06-08T07:14:53.244Z,44.13
2018-06-08T07:17:21.316Z,43.30
2018-06-08T07:19:49.387Z,43.13
2018-06-08T07:22:20.187Z,42.87
2018-06-08T07:24:48.470Z,42.02
2018-06-08T07:27:16.591Z,43.10
2018-06-08T07:29:44.696Z,42.22
2018-06-08T07:32:12.743Z,41.85
2018-06-08T07:34:40.800Z,42.30
2018-06-08T07:37:08.875Z,41.12
2018-06-08T07:39:37.082Z,40.80
2018-06-08T07:42:05.214Z,39.22
2018-06-08T07:44:33.308Z,40.61
2018-06-08T07:47:01.329Z,39.77
2018-06-08T07:49:30.616Z,39.98
2018-06-08T07:51:58.657Z,39.68
2018-06-08T07:54:26.715Z,38.82
2018-06-08T07:56:54.820Z,36.48
2018-06-08T07:59:22.915Z,37.19
2018-06-08T08:01:50.997Z,37.12
2018-06-08T08:04:19.048Z,36.96
2018-06-08T08:06:47.092Z,37.13
2018-06-08T08:09:15.218Z,35.93
2018-06-08T08:11:43.245Z,36.19
2018-06-08T08:14:11.320Z,35.81
2018-06-08T08:16:39.364Z,34.54
2018-06-08T08:19:07.408Z,34.83
2018-06-08T08:21:35.497Z,32.87
2018-06-08T08:24:05.124Z,34.01
2018-06-08T08:26:33.187Z,33.11
2018-06-08T08:29:01.228Z,33.11
2018-06-08T08:31:29.276Z,32.04
2018-06-08T08:33:57.320Z,31.45
2018-06-08T08:36:25.364Z,30.71
2018-06-08T08:38:53.411Z,30.68
2018-06-08T08:41:21.672Z,31.10
2018-06-08T08:43:49.749Z,30.64
2018-06-08T08:46:17.801Z,29.19
2018-06-08T08:48:45.840Z,30.02
2018-06-08T08:51:13.889Z,29.90
2018-06-08T08:53:41.956Z,29.57
2018-06-08T08:56:10.029Z,29.62
2018-06-08T08:58:38.100Z,28.99
2018-06-08T09:01:06.165Z,29.78
2018-06-08T09:03:34.220Z,28.52
2018-06-08T09:06:02.264Z,28.98
2018-06-08T09:08:30.328Z,29.24
2018-06-08T09:10:58.396Z,29.19
2018-06-08T09:13:26.445Z,28.54
2018-06-08T09:15:54.513Z,28.09
2018-06-08T09:18:22.576Z,28.33
2018-06-08T09:20:50.628Z,28.12
2018-06-08T09:23:18.696Z,27.76
2018-06-08T09:25:46.747Z,27.91
2018-06-08T09:28:14.820Z,28.04
2018-06-08T09:30:42.878Z,26.75
2018-06-08T09:33:11.000Z,26.92
2018-06-08T09:35:39.069Z,26.41
2018-06-08T09:38:07.145Z,25.84
2018-06-08T09:40:35.209Z,25.79
2018-06-08T09:43:03.276Z,26.58
2018-06-08T09:45:31.332Z,25.33
2018-06-08T09:47:59.397Z,25.18
2018-06-08T09:50:27.469Z,25.58
2018-06-08T09:52:55.535Z,25.25
2018-06-08T09:55:23.580Z,25.19
2018-06-08T09:57:51.664Z,23.98
2018-06-08T10:00:25.114Z,23.76
2018-06-08T10:02:53.176Z,23.99
2018-06-08T10:05:21.257Z,23.91
2018-06-08T10:07:49.315Z,23.53
2018-06-08T10:10:17.374Z,23.86
2018-06-08T10:12:45.443Z,23.75
2018-06-08T10:15:13.491Z,23.04
2018-06-08T10:17:41.560Z,23.64
2018-06-08T10:20:09.623Z,22.89
2018-06-08T10:22:37.704Z,23.00
2018-06-08T10:25:05.760Z,22.60
2018-06-08T10:27:33.852Z,22.67
2018-06-08T10:30:01.920Z,22.94
2018-06-08T10:32:30.006Z,22.19
2018-06-08T10:34:58.064Z,21.96
2018-06-08T10:37:26.121Z,22.52
2018-06-08T10:39:54.284Z,22.56
2018-06-08T10:42:22.329Z,22.10
2018-06-08T10:44:50.461Z,22.14
2018-06-08T10:47:18.557Z,22.16
2018-06-08T10:49:46.637Z,21.59
2018-06-08T10:52:14.716Z,21.70
2018-06-08T10:54:42.775Z,21.77
2018-06-08T10:57:10.825Z,21.26
2018-06-08T10:59:38.888Z,21.56
2018-06-08T11:02:06.943Z,20.69
2018-06-08T11:04:35.004Z,20.32
2018-06-08T11:07:03.067Z,21.11
2018-06-08T11:09:31.157Z,21.20
2018-06-08T11:11:59.204Z,20.42
2018-06-08T11:14:27.261Z,20.65
2018-06-08T11:16:55.328Z,19.57
2018-06-08T11:19:23.472Z,19.51
2018-06-08T11:21:51.550Z,20.01
2018-06-08T11:24:19.604Z,19.45
2018-06-08T11:26:47.656Z,19.89
2018-06-08T11:29:15.723Z,19.59
2018-06-08T11:31:43.765Z,19.28
2018-06-08T11:34:11.888Z,19.47
2018-06-08T11:36:39.952Z,18.98
2018-06-08T11:39:08.708Z,19.01
2018-06-08T11:41:36.762Z,18.87
2018-06-08T11:44:04.830Z,18.65
2018-06-08T11:46:32.876Z,18.71
2018-06-08T11:49:00.928Z,18.55
2018-06-08T11:51:28.992Z,18.30
2018-06-08T11:53:57.043Z,18.54
2018-06-08T11:56:25.096Z,18.41
2018-06-08T11:58:53.172Z,18.60
2018-06-08T12:01:21.245Z,18.43
2018-06-08T12:03:49.336Z,18.13
2018-06-08T12:06:17.402Z,18.08
2018-06-08T12:08:45.452Z,18.31
2018-06-08T12:11:13.522Z,17.78
2018-06-08T12:13:41.576Z,18.05
2018-06-08T12:16:09.689Z,17.96
2018-06-08T12:18:37.744Z,18.25
2018-06-08T12:21:05.809Z,18.36
2018-06-08T12:23:33.875Z,18.75
2018-06-08T12:26:01.958Z,18.50
2018-06-08T12:28:30.053Z,18.46
2018-06-08T12:30:58.136Z,18.93
2018-06-08T12:33:26.190Z,18.09
2018-06-08T12:35:54.269Z,18.30
2018-06-08T12:38:22.327Z,18.30
2018-06-08T12:40:50.406Z,18.26
2018-06-08T12:43:18.517Z,18.35
2018-06-08T12:45:46.657Z,18.49
2018-06-08T12:48:14.707Z,18.52
2018-06-08T12:50:42.787Z,18.19
2018-06-08T12:53:10.863Z,18.51
2018-06-08T12:55:38.958Z,18.64
2018-06-08T12:58:07.006Z,18.12
2018-06-08T13:00:35.069Z,17.95
2018-06-08T13:03:03.172Z,18.55
2018-06-08T13:05:31.224Z,18.47
2018-06-08T13:07:59.285Z,18.95
2018-06-08T13:10:27.359Z,18.71
2018-06-08T13:12:55.424Z,18.89
2018-06-08T13:15:23.491Z,18.70
2018-06-08T13:17:51.564Z,18.52
2018-06-08T13:20:19.648Z,18.68
2018-06-08T13:22:47.701Z,18.78
2018-06-08T13:25:15.781Z,18.56
2018-06-08T13:27:43.857Z,18.42
2018-06-08T13:30:11.919Z,18.66
2018-06-08T13:32:39.971Z,18.45
2018-06-08T13:35:08.043Z,18.34
2018-06-08T13:37:36.094Z,18.27
2018-06-08T13:40:04.149Z,18.74
2018-06-08T13:42:32.216Z,18.61
2018-06-08T13:45:00.284Z,18.13
2018-06-08T13:47:28.358Z,18.22
2018-06-08T13:49:56.426Z,17.96
2018-06-08T13:52:24.508Z,18.32
2018-06-08T13:54:52.540Z,18.11
2018-06-08T13:57:20.613Z,17.93
2018-06-08T13:59:48.660Z,18.16
2018-06-08T14:02:16.728Z,17.81
2018-06-08T14:04:44.777Z,17.79
2018-06-08T14:07:12.835Z,17.93
2018-06-08T14:09:40.903Z,18.23
2018-06-08T14:12:08.953Z,18.11
2018-06-08T14:14:37.055Z,18.14
2018-06-08T14:17:05.368Z,17.92
2018-06-08T14:19:33.413Z,18.12
2018-06-08T14:22:01.535Z,18.17
2018-06-08T14:24:29.552Z,18.42
2018-06-08T14:26:57.625Z,18.20
2018-06-08T14:29:25.683Z,18.05
2018-06-08T14:31:53.740Z,18.57
2018-06-08T14:34:21.809Z,19.16
2018-06-08T14:36:49.961Z,18.90
2018-06-08T14:39:18.069Z,18.53
2018-06-08T14:41:46.139Z,19.06
2018-06-08T14:44:14.196Z,19.00
2018-06-08T14:46:42.440Z,19.31
2018-06-08T14:49:10.508Z,19.61
2018-06-08T14:51:38.574Z,19.79
2018-06-08T14:54:06.667Z,20.22
2018-06-08T14:56:34.736Z,20.35
2018-06-08T14:59:02.833Z,20.71
2018-06-08T15:01:30.919Z,21.04
2018-06-08T15:03:58.971Z,21.67
2018-06-08T15:06:27.041Z,22.09
2018-06-08T15:08:55.115Z,22.13
2018-06-08T15:11:23.172Z,21.93
2018-06-08T15:13:51.312Z,22.28
2018-06-08T15:16:19.415Z,22.98
2018-06-08T15:18:47.496Z,23.19
2018-06-08T15:21:15.551Z,23.64
2018-06-08T15:23:43.749Z,23.99
2018-06-08T15:26:11.789Z,24.20
2018-06-08T15:28:39.936Z,24.29
2018-06-08T15:31:08.008Z,23.77
2018-06-08T15:33:36.068Z,24.74
2018-06-08T15:36:04.180Z,24.43
2018-06-08T15:38:32.241Z,24.85
2018-06-08T15:41:00.290Z,24.71
2018-06-08T15:43:28.347Z,24.78
2018-06-08T15:45:56.412Z,25.40
2018-06-08T15:48:24.536Z,25.78
2018-06-08T15:50:52.596Z,25.17
2018-06-08T15:53:20.687Z,25.36
2018-06-08T15:55:48.744Z,26.46
2018-06-08T15:58:16.811Z,25.35
2018-06-08T16:00:44.892Z,25.99
2018-06-08T16:03:12.962Z,26.41
2018-06-08T16:05:41.016Z,26.19
2018-06-08T16:08:09.200Z,26.26
2018-06-08T16:10:37.248Z,26.24
2018-06-08T16:13:05.348Z,26.36
2018-06-08T16:15:33.382Z,26.79
2018-06-08T16:18:01.473Z,27.03
2018-06-08T16:20:29.555Z,27.80
2018-06-08T16:22:57.639Z,27.98
2018-06-08T16:25:25.703Z,27.09
2018-06-08T16:27:53.800Z,27.20
2018-06-08T16:30:21.887Z,28.26
2018-06-08T16:32:50.002Z,27.81
2018-06-08T16:35:18.172Z,28.18
2018-06-08T16:37:46.236Z,28.66
2018-06-08T16:40:14.305Z,27.44
2018-06-08T16:42:42.363Z,28.30
2018-06-08T16:45:10.446Z,27.65
2018-06-08T16:47:38.492Z,28.07
2018-06-08T16:50:06.577Z,28.48
2018-06-08T16:52:34.633Z,29.17
2018-06-08T16:55:02.696Z,28.30
2018-06-08T16:57:30.793Z,28.55
2018-06-08T16:59:58.848Z,28.60
2018-06-08T17:02:26.904Z,29.18
2018-06-08T17:04:54.965Z,28.88
2018-06-08T17:07:23.007Z,28.87
2018-06-08T17:09:51.061Z,29.79
2018-06-08T17:12:19.170Z,28.86
2018-06-08T17:14:47.254Z,29.40
2018-06-08T17:17:15.272Z,30.33
2018-06-08T17:19:43.324Z,29.99
2018-06-08T17:22:11.373Z,30.15
2018-06-08T17:24:39.444Z,29.43
2018-06-08T17:27:07.520Z,29.80
2018-06-08T17:29:35.584Z,30.22
2018-06-08T17:32:03.621Z,29.83
2018-06-08T17:34:31.668Z,30.15
2018-06-08T17:36:59.708Z,30.61
2018-06-08T17:39:27.765Z,30.31
2018-06-08T17:41:55.821Z,31.27
2018-06-08T17:44:23.881Z,31.32
2018-06-08T17:46:51.914Z,30.49
2018-06-08T17:49:19.973Z,30.59
2018-06-08T17:51:48.032Z,31.11
2018-06-08T17:54:16.070Z,30.60
2018-06-08T17:56:44.115Z,30.88
2018-06-08T17:59:12.159Z,32.06
2018-06-08T18:01:40.211Z,31.45
2018-06-08T18:04:08.261Z,31.60
2018-06-08T18:06:36.315Z,32.28
2018-06-08T18:09:06.160Z,31.87
2018-06-08T18:11:34.196Z,31.94
2018-06-08T18:14:02.273Z,32.45
2018-06-08T18:16:30.321Z,32.25
2018-06-08T18:18:58.348Z,32.34
2018-06-08T18:21:26.413Z,31.60
2018-06-08T18:23:54.477Z,33.36
2018-06-08T18:26:22.541Z,33.68
2018-06-08T18:28:50.580Z,33.64
2018-06-08T18:31:18.632Z,34.18
2018-06-08T18:33:46.665Z,33.75
2018-06-08T18:36:14.736Z,33.39
2018-06-08T18:38:42.788Z,33.73
2018-06-08T18:41:10.843Z,34.43
2018-06-08T18:43:38.891Z,33.94
2018-06-08T18:46:06.935Z,33.63
2018-06-08T18:48:34.986Z,33.58
2018-06-08T18:51:03.090Z,35.18
2018-06-08T18:53:31.131Z,34.40
2018-06-08T18:55:59.185Z,34.40
2018-06-08T18:58:27.252Z,35.38
2018-06-08T19:00:55.332Z,35.62
2018-06-08T19:03:23.371Z,36.44
2018-06-08T19:05:51.440Z,36.53
2018-06-08T19:08:19.496Z,36.50
2018-06-08T19:10:47.548Z,36.75
2018-06-08T19:13:15.677Z,36.70
2018-06-08T19:15:43.731Z,37.79
2018-06-08T19:18:11.809Z,36.95
2018-06-08T19:20:39.876Z,38.09
2018-06-08T19:23:07.924Z,38.13
2018-06-08T19:25:36.034Z,38.46
2018-06-08T19:28:04.068Z,38.24
2018-06-08T19:30:32.165Z,38.12
2018-06-08T19:33:00.233Z,39.07
2018-06-08T19:35:28.308Z,39.18
2018-06-08T19:37:56.480Z,39.04
2018-06-08T19:40:24.544Z,38.98
2018-06-08T19:42:52.720Z,38.86
2018-06-08T19:45:20.782Z,39.06
2018-06-08T19:47:48.863Z,38.84
2018-06-08T19:50:17.215Z,38.92
2018-06-08T19:52:45.304Z,39.97
2018-06-08T19:55:13.388Z,39.04
2018-06-08T19:57:41.452Z,39.36
2018-06-08T20:00:09.501Z,39.88
2018-06-08T20:02:37.588Z,39.45
2018-06-08T20:05:05.680Z,39.82
2018-06-08T20:07:33.728Z,39.58
2018-06-08T20:10:01.840Z,39.79
2018-06-08T20:12:29.890Z,39.81
2018-06-08T20:14:58.763Z,40.59
2018-06-08T20:17:26.817Z,41.10
2018-06-08T20:19:54.860Z,40.88
2018-06-08T20:22:22.936Z,40.10
2018-06-08T20:24:51.032Z,40.91
2018-06-08T20:27:19.112Z,40.49
2018-06-08T20:29:47.176Z,41.31
2018-06-08T20:32:15.240Z,40.94
2018-06-08T20:34:43.306Z,41.18
2018-06-08T20:37:11.389Z,41.35
2018-06-08T20:39:39.450Z,41.77
2018-06-08T20:42:07.534Z,42.05
2018-06-08T20:44:35.599Z,42.84
2018-06-08T20:47:03.777Z,42.12
2018-06-08T20:49:31.824Z,42.35
2018-06-08T20:51:59.975Z,42.73
2018-06-08T20:54:28.076Z,42.94
2018-06-08T20:57:07.601Z,44.16
2018-06-08T20:59:35.693Z,43.82
2018-06-08T21:02:03.783Z,44.17
2018-06-08T21:04:31.819Z,43.86
2018-06-08T21:06:59.880Z,44.52
2018-06-08T21:09:27.965Z,45.10
2018-06-08T21:11:56.037Z,44.76
2018-06-08T21:14:24.095Z,45.15
2018-06-08T21:16:52.188Z,45.44
2018-06-08T21:19:20.252Z,45.46
2018-06-08T21:21:48.322Z,45.42
2018-06-08T21:24:16.364Z,45.71
2018-06-08T21:26:44.420Z,45.76
2018-06-08T21:29:12.463Z,46.25
2018-06-08T21:31:40.515Z,46.18
2018-06-08T21:34:08.596Z,46.83
2018-06-08T21:36:36.600Z,47.09
2018-06-08T21:39:06.360Z,47.00
2018-06-08T21:41:34.692Z,46.99
2018-06-08T21:44:02.692Z,47.43
2018-06-08T21:46:30.737Z,47.43
2018-06-08T21:48:58.831Z,47.44
2018-06-08T21:51:26.885Z,47.64
2018-06-08T21:53:54.960Z,47.83
2018-06-08T21:56:23.020Z,47.88
2018-06-08T21:58:51.130Z,48.13
2018-06-08T22:01:19.172Z,48.17
2018-06-08T22:03:47.361Z,48.37
2018-06-08T22:06:15.432Z,48.55
2018-06-08T22:08:43.494Z,48.84
2018-06-08T22:11:11.566Z,48.93
2018-06-08T22:13:39.636Z,49.06
2018-06-08T22:16:07.680Z,49.09
2018-06-08T22:18:35.772Z,49.16
2018-06-08T22:21:03.832Z,49.12
2018-06-08T22:23:31.916Z,49.19
2018-06-08T22:25:59.976Z,49.49
2018-06-08T22:28:28.176Z,49.63
2018-06-08T22:30:56.225Z,49.18
2018-06-08T22:33:24.300Z,49.87
2018-06-08T22:35:52.355Z,50.04
2018-06-08T22:38:20.436Z,50.30
2018-06-08T22:40:48.501Z,50.49
2018-06-08T22:43:16.544Z,50.51
2018-06-08T22:45:44.588Z,50.49
2018-06-08T22:48:12.665Z,50.72
2018-06-08T22:50:40.744Z,50.78
2018-06-08T22:53:08.857Z,50.75
2018-06-08T22:55:36.916Z,50.75
2018-06-08T22:58:04.980Z,50.54
2018-06-08T23:00:33.041Z,51.58
2018-06-08T23:03:01.143Z,51.68
2018-06-08T23:05:29.197Z,50.86
2018-06-08T23:07:57.272Z,51.22
2018-06-08T23:10:25.345Z,51.38
2018-06-08T23:12:53.404Z,50.99
2018-06-08T23:15:21.577Z,51.80
2018-06-08T23:17:49.669Z,51.80
2018-06-08T23:20:17.724Z,52.12
2018-06-08T23:22:45.791Z,52.70
2018-06-08T23:25:13.851Z,52.77
2018-06-08T23:27:41.902Z,52.95
2018-06-08T23:30:10.008Z,52.87
2018-06-08T23:32:38.073Z,52.42
2018-06-08T23:35:06.132Z,53.14
2018-06-08T23:37:34.209Z,53.09
2018-06-08T23:40:02.278Z,53.29
2018-06-08T23:42:30.409Z,53.30
2018-06-08T23:44:58.532Z,54.27
2018-06-08T23:47:26.609Z,53.50
2018-06-08T23:49:54.658Z,53.81
2018-06-08T23:52:22.731Z,54.35
2018-06-08T23:54:50.807Z,54.45
2018-06-08T23:57:18.871Z,54.78
2018-06-08T23:59:47.772Z,54.64
